createdAt,value
2023-01-07T00:01:10.316Z,98762.47
2023-01-07T00:03:37.088Z,98760.22
2023-01-07T00:06:10.720Z,98757.53
2023-01-07T00:08:37.874Z,98753.13
2023-01-07T00:11:05.068Z,98748.63
2023-01-07T00:13:31.599Z,98755.75
2023-01-07T00:15:58.596Z,98745.53
2023-01-07T00:18:24.917Z,98747.41
2023-01-07T00:20:51.201Z,98742.66
2023-01-07T00:23:17.606Z,98747.88
2023-01-07T00:25:43.863Z,98746.56
2023-01-07T00:28:10.123Z,98745.94
2023-01-07T00:30:36.414Z,98745.53
2023-01-07T00:33:04.307Z,98752.19
2023-01-07T00:35:31.580Z,98751.44
2023-01-07T00:37:58.009Z,98743.28
2023-01-07T00:40:24.358Z,98745.94
2023-01-07T00:43:01.646Z,98745.94
2023-01-07T00:45:29.886Z,98737.00
2023-01-07T00:47:57.063Z,98746.69
2023-01-07T00:50:24.241Z,98741.19
2023-01-07T00:52:50.742Z,98742.25
2023-01-07T00:55:17.282Z,98743.41
2023-01-07T00:57:43.879Z,98735.22
2023-01-07T01:00:11.279Z,98744.00
2023-01-07T01:02:37.725Z,98741.34
2023-01-07T01:05:04.500Z,98748.63
2023-01-07T01:07:30.850Z,98744.75
2023-01-07T01:09:57.320Z,98740.28
2023-01-07T01:12:23.608Z,98740.09
2023-01-07T01:14:56.468Z,98742.22
2023-01-07T01:17:25.623Z,98748.31
2023-01-07T01:19:52.280Z,98750.84
2023-01-07T01:22:19.153Z,98746.66
2023-01-07T01:24:45.751Z,98741.47
2023-01-07T01:27:15.182Z,98740.44
2023-01-07T01:29:47.333Z,98744.59
2023-01-07T01:32:13.915Z,98740.28
2023-01-07T01:34:43.868Z,98748.78
2023-01-07T01:37:10.785Z,98736.97
2023-01-07T01:39:37.626Z,98737.72
2023-01-07T01:42:04.526Z,98733.41
2023-01-07T01:44:38.865Z,98744.91
2023-01-07T01:47:07.408Z,98743.09
2023-01-07T01:49:39.171Z,98747.56
2023-01-07T01:52:09.331Z,98745.31
2023-01-07T01:54:35.820Z,98747.56
2023-01-07T01:57:04.877Z,98743.41
2023-01-07T01:59:33.493Z,98733.41
2023-01-07T02:02:00.260Z,98737.44
2023-01-07T02:04:30.140Z,98743.25
2023-01-07T02:07:02.946Z,98742.50
2023-01-07T02:09:29.784Z,98735.94
2023-01-07T02:12:02.450Z,98735.66
2023-01-07T02:14:47.217Z,98733.59
2023-01-07T02:17:16.556Z,98736.09
2023-01-07T02:19:42.882Z,98728.06
2023-01-07T02:22:19.001Z,98731.94
2023-01-07T02:25:04.116Z,98725.53
2023-01-07T02:27:38.758Z,98723.56
2023-01-07T02:30:08.065Z,98729.25
2023-01-07T02:32:40.825Z,98721.97
2023-01-07T02:35:26.248Z,98715.41
2023-01-07T02:37:52.978Z,98708.25
2023-01-07T02:40:22.672Z,98704.66
2023-01-07T02:42:51.812Z,98704.94
2023-01-07T02:45:28.850Z,98700.00
2023-01-07T02:47:57.968Z,98693.63
2023-01-07T02:50:24.296Z,98700.78
2023-01-07T02:52:50.961Z,98703.19
2023-01-07T02:55:39.562Z,98699.91
2023-01-07T02:58:34.661Z,98706.47
2023-01-07T03:01:27.802Z,98702.44
2023-01-07T03:03:54.877Z,98705.06
2023-01-07T03:06:21.801Z,98699.56
2023-01-07T03:08:48.110Z,98696.88
2023-01-07T03:11:14.996Z,98699.56
2023-01-07T03:13:44.898Z,98696.63
2023-01-07T03:16:20.885Z,98700.94
2023-01-07T03:18:50.276Z,98698.41
2023-01-07T03:21:18.127Z,98699.44
2023-01-07T03:23:47.831Z,98704.06
2023-01-07T03:26:15.795Z,98712.69
2023-01-07T03:28:43.089Z,98704.81
2023-01-07T03:31:12.087Z,98698.53
2023-01-07T03:33:46.056Z,98701.81
2023-01-07T03:36:15.590Z,98705.09
2023-01-07T03:38:43.457Z,98708.38
2023-01-07T03:41:10.099Z,98714.19
2023-01-07T03:43:36.780Z,98704.81
2023-01-07T03:46:03.451Z,98696.75
2023-01-07T03:48:29.884Z,98696.16
2023-01-07T03:50:56.303Z,98691.09
2023-01-07T03:53:23.048Z,98693.34
2023-01-07T03:55:49.913Z,98685.13
2023-01-07T03:58:16.730Z,98684.22
2023-01-07T04:00:43.589Z,98691.97
2023-01-07T04:03:13.456Z,98693.34
2023-01-07T04:05:39.898Z,98686.34
2023-01-07T04:08:08.351Z,98687.09
2023-01-07T04:10:37.698Z,98680.25
2023-01-07T04:13:04.263Z,98678.72
2023-01-07T04:15:31.105Z,98678.88
2023-01-07T04:17:57.902Z,98676.91
2023-01-07T04:20:25.189Z,98680.81
2023-01-07T04:22:52.185Z,98669.75
2023-01-07T04:25:21.775Z,98668.69
2023-01-07T04:27:48.413Z,98670.34
2023-01-07T04:30:15.205Z,98660.22
2023-01-07T04:32:42.125Z,98665.25
2023-01-07T04:35:12.163Z,98671.22
2023-01-07T04:37:41.604Z,98666.91
2023-01-07T04:40:08.344Z,98671.22
2023-01-07T04:42:35.972Z,98675.53
2023-01-07T04:45:02.650Z,98663.50
2023-01-07T04:47:29.581Z,98659.50
2023-01-07T04:49:56.301Z,98662.72
2023-01-07T04:52:22.649Z,98654.41
2023-01-07T04:54:49.133Z,98661.88
2023-01-07T04:57:15.465Z,98657.41
2023-01-07T04:59:41.924Z,98659.66
2023-01-07T05:02:08.331Z,98664.72
2023-01-07T05:04:34.793Z,98656.22
2023-01-07T05:07:01.467Z,98656.25
2023-01-07T05:09:27.836Z,98656.53
2023-01-07T05:11:54.216Z,98648.94
2023-01-07T05:14:20.648Z,98658.19
2023-01-07T05:16:47.123Z,98653.59
2023-01-07T05:19:13.694Z,98649.84
2023-01-07T05:21:40.172Z,98650.59
2023-01-07T05:24:06.802Z,98651.34
2023-01-07T05:26:33.277Z,98650.03
2023-01-07T05:28:59.995Z,98650.03
2023-01-07T05:31:26.702Z,98652.84
2023-01-07T05:33:53.019Z,98650.16
2023-01-07T05:36:19.282Z,98641.69
2023-01-07T05:38:45.900Z,98643.00
2023-01-07T05:41:13.106Z,98645.72
2023-01-07T05:43:39.675Z,98644.66
2023-01-07T05:46:06.580Z,98644.97
2023-01-07T05:48:32.897Z,98647.38
2023-01-07T05:50:59.180Z,98650.94
2023-01-07T05:53:25.502Z,98653.47
2023-01-07T05:55:58.615Z,98657.78
2023-01-07T05:58:24.939Z,98654.91
2023-01-07T06:00:51.451Z,98654.34
2023-01-07T06:03:17.783Z,98658.03
2023-01-07T06:05:44.163Z,98655.63
2023-01-07T06:08:10.475Z,98653.38
2023-01-07T06:10:36.821Z,98645.03
2023-01-07T06:13:03.143Z,98650.59
2023-01-07T06:15:29.494Z,98647.50
2023-01-07T06:17:55.821Z,98653.47
2023-01-07T06:20:22.130Z,98648.09
2023-01-07T06:22:48.425Z,98651.22
2023-01-07T06:25:14.808Z,98649.91
2023-01-07T06:27:41.539Z,98656.16
2023-01-07T06:30:08.532Z,98656.28
2023-01-07T06:32:42.161Z,98654.38
2023-01-07T06:35:10.282Z,98660.03
2023-01-07T06:37:37.099Z,98659.28
2023-01-07T06:40:03.860Z,98654.53
2023-01-07T06:42:30.167Z,98651.09
2023-01-07T06:44:56.539Z,98651.25
2023-01-07T06:47:22.854Z,98657.38
2023-01-07T06:49:49.104Z,98647.81
2023-01-07T06:52:15.359Z,98659.13
2023-01-07T06:54:41.755Z,98654.66
2023-01-07T06:57:08.032Z,98657.34
2023-01-07T06:59:34.330Z,98654.06
2023-01-07T07:02:00.687Z,98649.91
2023-01-07T07:04:27.035Z,98650.84
2023-01-07T07:06:53.316Z,98656.59
2023-01-07T07:09:19.673Z,98653.47
2023-01-07T07:11:46.041Z,98655.66
2023-01-07T07:14:12.537Z,98658.06
2023-01-07T07:16:38.939Z,98659.28
2023-01-07T07:19:05.305Z,98660.47
2023-01-07T07:21:31.888Z,98662.56
2023-01-07T07:23:58.387Z,98657.66
2023-01-07T07:26:24.705Z,98664.19
2023-01-07T07:28:51.141Z,98662.78
2023-01-07T07:31:17.505Z,98663.97
2023-01-07T07:33:43.992Z,98667.88
2023-01-07T07:36:11.491Z,98668.06
2023-01-07T07:38:37.870Z,98671.00
2023-01-07T07:41:04.302Z,98668.91
2023-01-07T07:43:30.872Z,98664.63
2023-01-07T07:45:57.897Z,98666.72
2023-01-07T07:48:24.174Z,98660.97
2023-01-07T07:50:51.503Z,98671.47
2023-01-07T07:53:18.579Z,98671.81
2023-01-07T07:55:44.877Z,98676.69
2023-01-07T07:58:11.159Z,98669.28
2023-01-07T08:00:37.818Z,98667.19
2023-01-07T08:03:04.825Z,98669.25
2023-01-07T08:05:31.887Z,98662.88
2023-01-07T08:07:59.091Z,98665.84
2023-01-07T08:10:29.077Z,98661.81
2023-01-07T08:12:55.996Z,98667.78
2023-01-07T08:15:22.530Z,98668.66
2023-01-07T08:17:56.260Z,98668.88
2023-01-07T08:20:22.774Z,98664.66
2023-01-07T08:22:49.132Z,98663.06
2023-01-07T08:25:15.746Z,98661.09
2023-01-07T08:27:42.406Z,98665.31
2023-01-07T08:30:09.085Z,98668.13
2023-01-07T08:32:36.369Z,98671.41
2023-01-07T08:35:03.065Z,98668.41
2023-01-07T08:37:29.823Z,98665.44
2023-01-07T08:39:56.163Z,98670.03
2023-01-07T08:42:22.478Z,98663.78
2023-01-07T08:44:48.761Z,98668.38
2023-01-07T08:47:15.046Z,98664.81
2023-01-07T08:49:41.441Z,98655.75
2023-01-07T08:52:09.478Z,98656.25
2023-01-07T08:54:35.844Z,98652.50
2023-01-07T08:57:02.127Z,98641.44
2023-01-07T08:59:28.457Z,98642.97
2023-01-07T09:01:54.792Z,98638.22
2023-01-07T09:04:21.210Z,98639.97
2023-01-07T09:06:47.510Z,98647.69
2023-01-07T09:09:16.498Z,98643.25
2023-01-07T09:11:43.207Z,98643.50
2023-01-07T09:14:09.524Z,98641.81
2023-01-07T09:16:35.981Z,98636.94
2023-01-07T09:19:02.481Z,98639.59
2023-01-07T09:21:29.118Z,98642.09
2023-01-07T09:23:55.664Z,98638.66
2023-01-07T09:26:22.688Z,98641.19
2023-01-07T09:28:49.077Z,98629.81
2023-01-07T09:31:15.885Z,98635.66
2023-01-07T09:33:42.838Z,98632.56
2023-01-07T09:36:09.419Z,98630.41
2023-01-07T09:38:36.542Z,98632.34
2023-01-07T09:41:03.133Z,98623.59
2023-01-07T09:44:01.028Z,98620.75
2023-01-07T09:46:25.941Z,98616.16
2023-01-07T09:48:57.817Z,98623.13
2023-01-07T09:51:36.968Z,98619.56
2023-01-07T09:54:05.345Z,98615.44
2023-01-07T09:56:33.148Z,98609.75
2023-01-07T09:59:01.224Z,98603.63
2023-01-07T10:01:27.812Z,98601.00
2023-01-07T10:04:00.558Z,98598.34
2023-01-07T10:06:43.121Z,98606.75
2023-01-07T10:09:20.960Z,98599.81
2023-01-07T10:12:03.583Z,98599.81
2023-01-07T10:14:30.202Z,98599.66
2023-01-07T10:17:16.251Z,98594.59
2023-01-07T10:19:50.511Z,98595.25
2023-01-07T10:22:23.006Z,98591.03
2023-01-07T10:24:53.048Z,98587.06
2023-01-07T10:27:24.985Z,98591.41
2023-01-07T10:29:55.023Z,98579.09
2023-01-07T10:32:22.437Z,98575.38
2023-01-07T10:34:50.270Z,98566.53
2023-01-07T10:37:16.571Z,98567.69
2023-01-07T10:39:57.784Z,98557.84
2023-01-07T10:42:27.037Z,98554.59
2023-01-07T10:44:56.439Z,98555.53
2023-01-07T10:47:40.928Z,98540.31
2023-01-07T10:50:28.325Z,98534.41
2023-01-07T10:53:13.621Z,98537.63
2023-01-07T10:55:46.252Z,98536.75
2023-01-07T10:58:13.074Z,98537.13
2023-01-07T11:00:39.829Z,98522.53
2023-01-07T11:03:13.040Z,98517.56
2023-01-07T11:05:39.368Z,98514.59
2023-01-07T11:08:11.420Z,98511.47
2023-01-07T11:10:37.991Z,98506.38
2023-01-07T11:13:15.330Z,98492.81
2023-01-07T11:15:52.062Z,98493.50
2023-01-07T11:18:23.861Z,98485.66
2023-01-07T11:20:51.097Z,98486.31
2023-01-07T11:23:37.178Z,98483.16
2023-01-07T11:26:09.870Z,98484.84
2023-01-07T11:28:37.118Z,98468.94
2023-01-07T11:31:03.617Z,98466.66
2023-01-07T11:34:03.010Z,98470.34
2023-01-07T11:36:20.187Z,98470.16
2023-01-07T11:38:47.371Z,98468.56
2023-01-07T11:41:21.875Z,98469.50
2023-01-07T11:43:49.563Z,98459.53
2023-01-07T11:46:19.840Z,98455.22
2023-01-07T11:48:49.921Z,98446.78
2023-01-07T11:51:16.551Z,98444.84
2023-01-07T11:53:47.003Z,98443.84
2023-01-07T11:56:21.999Z,98442.00
2023-01-07T11:58:49.513Z,98435.81
2023-01-07T12:01:17.830Z,98431.31
2023-01-07T12:03:53.226Z,98439.03
2023-01-07T12:06:27.086Z,98430.56
2023-01-07T12:09:02.756Z,98434.69
2023-01-07T12:11:33.283Z,98438.06
2023-01-07T12:14:03.019Z,98437.63
2023-01-07T12:16:29.436Z,98437.63
2023-01-07T12:19:05.425Z,98430.63
2023-01-07T12:21:34.895Z,98433.00
2023-01-07T12:24:04.281Z,98426.19
2023-01-07T12:26:33.779Z,98429.19
2023-01-07T12:29:15.170Z,98421.72
2023-01-07T12:32:00.402Z,98419.75
2023-01-07T12:34:26.872Z,98418.13
2023-01-07T12:37:01.666Z,98415.97
2023-01-07T12:39:34.618Z,98407.94
2023-01-07T12:42:04.297Z,98406.88
2023-01-07T12:44:30.994Z,98396.78
2023-01-07T12:47:32.569Z,98407.28
2023-01-07T12:50:00.193Z,98395.69
2023-01-07T12:52:38.418Z,98399.19
2023-01-07T12:55:22.208Z,98402.75
2023-01-07T12:58:10.061Z,98396.72
2023-01-07T13:00:40.765Z,98387.50
2023-01-07T13:03:17.658Z,98380.75
2023-01-07T13:05:48.397Z,98381.91
2023-01-07T13:08:20.486Z,98382.16
2023-01-07T13:10:49.416Z,98387.03
2023-01-07T13:13:20.477Z,98382.75
2023-01-07T13:15:48.071Z,98372.53
2023-01-07T13:18:18.264Z,98372.00
2023-01-07T13:21:03.412Z,98368.09
2023-01-07T13:23:36.129Z,98367.78
2023-01-07T13:26:20.628Z,98364.06
2023-01-07T13:29:05.550Z,98356.97
2023-01-07T13:31:34.852Z,98354.41
2023-01-07T13:34:10.992Z,98353.72
2023-01-07T13:36:51.005Z,98352.53
2023-01-07T13:39:30.440Z,98347.47
2023-01-07T13:42:18.202Z,98348.28
2023-01-07T13:45:04.784Z,98349.75
2023-01-07T13:47:45.486Z,98344.34
2023-01-07T13:50:23.490Z,98345.75
2023-01-07T13:53:07.848Z,98348.94
2023-01-07T13:55:35.879Z,98348.94
2023-01-07T13:58:05.095Z,98353.44
2023-01-07T14:00:39.728Z,98340.16
2023-01-07T14:03:26.072Z,98340.47
2023-01-07T14:06:12.630Z,98336.72
2023-01-07T14:08:38.916Z,98344.53
2023-01-07T14:11:05.261Z,98336.75
2023-01-07T14:13:36.904Z,98340.38
2023-01-07T14:16:03.267Z,98336.69
2023-01-07T14:18:32.797Z,98321.19
2023-01-07T14:21:06.840Z,98334.91
2023-01-07T14:23:38.737Z,98321.59
2023-01-07T14:26:17.331Z,98322.16
2023-01-07T14:29:06.005Z,98319.09
2023-01-07T14:31:32.554Z,98325.03
2023-01-07T14:34:03.973Z,98310.16
2023-01-07T14:36:48.786Z,98316.91
2023-01-07T14:39:31.871Z,98311.72
2023-01-07T14:42:16.860Z,98310.03
2023-01-07T14:44:43.328Z,98305.81
2023-01-07T14:47:13.049Z,98306.25
2023-01-07T14:49:50.062Z,98307.53
2023-01-07T14:52:34.754Z,98300.47
2023-01-07T14:55:07.081Z,98296.03
2023-01-07T14:57:45.397Z,98297.94
2023-01-07T15:00:29.900Z,98293.78
2023-01-07T15:03:14.302Z,98294.00
2023-01-07T15:05:49.796Z,98290.75
2023-01-07T15:08:37.456Z,98282.84
2023-01-07T15:11:23.367Z,98290.56
2023-01-07T15:14:13.656Z,98274.38
2023-01-07T15:16:40.229Z,98284.94
2023-01-07T15:19:08.156Z,98282.63
2023-01-07T15:21:47.625Z,98292.78
2023-01-07T15:24:26.103Z,98281.97
2023-01-07T15:27:14.832Z,98284.84
2023-01-07T15:29:48.695Z,98284.13
2023-01-07T15:32:14.960Z,98277.47
2023-01-07T15:34:41.424Z,98275.78
2023-01-07T15:37:08.655Z,98274.06
2023-01-07T15:39:43.252Z,98276.69
2023-01-07T15:42:16.605Z,98278.19
2023-01-07T15:44:43.204Z,98278.09
2023-01-07T15:47:28.110Z,98280.28
2023-01-07T15:49:54.407Z,98277.13
2023-01-07T15:52:23.410Z,98264.16
2023-01-07T15:54:49.924Z,98272.56
2023-01-07T15:57:26.121Z,98266.34
2023-01-07T15:59:53.677Z,98271.50
2023-01-07T16:02:29.516Z,98273.94
2023-01-07T16:04:58.683Z,98271.19
2023-01-07T16:07:30.365Z,98276.03
2023-01-07T16:09:57.206Z,98277.81
2023-01-07T16:12:39.134Z,98269.69
2023-01-07T16:15:31.692Z,98269.59
2023-01-07T16:18:05.977Z,98262.53
2023-01-07T16:20:35.125Z,98267.91
2023-01-07T16:23:08.747Z,98259.34
2023-01-07T16:25:46.208Z,98254.47
2023-01-07T16:28:18.498Z,98260.06
2023-01-07T16:30:45.680Z,98248.19
2023-01-07T16:33:14.243Z,98247.00
2023-01-07T16:35:40.791Z,98235.84
2023-01-07T16:38:15.398Z,98243.28
2023-01-07T16:40:41.951Z,98236.25
2023-01-07T16:43:26.910Z,98236.41
2023-01-07T16:46:08.542Z,98228.19
2023-01-07T16:48:34.806Z,98225.97
2023-01-07T16:51:01.331Z,98222.69
2023-01-07T16:53:28.738Z,98221.00
2023-01-07T16:56:07.789Z,98221.34
2023-01-07T16:58:34.260Z,98223.28
2023-01-07T17:01:02.034Z,98208.09
2023-01-07T17:03:29.554Z,98217.34
2023-01-07T17:05:57.729Z,98210.88
2023-01-07T17:08:24.223Z,98197.09
2023-01-07T17:10:56.335Z,98200.34
2023-01-07T17:13:22.603Z,98195.06
2023-01-07T17:15:48.873Z,98189.88
2023-01-07T17:18:15.133Z,98191.97
2023-01-07T17:20:48.626Z,98183.66
2023-01-07T17:23:27.508Z,98179.47
2023-01-07T17:26:01.864Z,98179.78
2023-01-07T17:28:29.064Z,98178.72
2023-01-07T17:30:55.469Z,98171.22
2023-01-07T17:33:23.223Z,98168.03
2023-01-07T17:35:50.800Z,98172.34
2023-01-07T17:38:17.580Z,98176.34
2023-01-07T17:40:44.571Z,98170.75
2023-01-07T17:43:36.762Z,98181.72
2023-01-07T17:46:04.543Z,98178.75
2023-01-07T17:48:31.631Z,98174.03
2023-01-07T17:50:58.299Z,98169.19
2023-01-07T17:53:29.765Z,98166.31
2023-01-07T17:55:56.409Z,98167.47
2023-01-07T17:58:30.183Z,98161.97
2023-01-07T18:00:57.468Z,98159.00
2023-01-07T18:03:24.551Z,98160.38
2023-01-07T18:05:50.904Z,98157.28
2023-01-07T18:08:17.377Z,98155.38
2023-01-07T18:11:03.012Z,98149.84
2023-01-07T18:13:29.915Z,98154.28
2023-01-07T18:15:59.699Z,98159.09
2023-01-07T18:18:28.473Z,98161.63
2023-01-07T18:20:55.118Z,98153.78
2023-01-07T18:23:21.800Z,98150.41
2023-01-07T18:25:48.105Z,98155.16
2023-01-07T18:28:14.557Z,98158.75
2023-01-07T18:30:41.154Z,98150.31
2023-01-07T18:33:08.122Z,98153.16
2023-01-07T18:35:35.066Z,98161.28
2023-01-07T18:38:01.599Z,98152.47
2023-01-07T18:40:28.096Z,98152.47
2023-01-07T18:42:54.936Z,98145.03
2023-01-07T18:45:21.520Z,98136.50
2023-01-07T18:47:47.943Z,98144.91
2023-01-07T18:50:14.767Z,98131.97
2023-01-07T18:52:41.655Z,98141.06
2023-01-07T18:55:08.725Z,98124.53
2023-01-07T18:57:35.235Z,98120.59
2023-01-07T19:00:01.802Z,98116.22
2023-01-07T19:02:28.136Z,98119.53
2023-01-07T19:04:54.385Z,98120.81
2023-01-07T19:07:21.787Z,98119.03
2023-01-07T19:09:48.048Z,98116.44
2023-01-07T19:12:14.456Z,98115.31
2023-01-07T19:14:40.782Z,98122.13
2023-01-07T19:17:07.776Z,98125.75
2023-01-07T19:19:47.107Z,98125.41
2023-01-07T19:22:15.812Z,98130.38
2023-01-07T19:24:42.195Z,98120.25
2023-01-07T19:27:08.542Z,98132.16
2023-01-07T19:29:34.818Z,98122.34
2023-01-07T19:32:01.217Z,98120.47
2023-01-07T19:34:27.527Z,98120.47
2023-01-07T19:36:53.906Z,98114.13
2023-01-07T19:39:21.062Z,98113.53
2023-01-07T19:41:47.873Z,98109.69
2023-01-07T19:44:14.432Z,98106.06
2023-01-07T19:46:41.151Z,98118.22
2023-01-07T19:49:07.897Z,98110.25
2023-01-07T19:51:35.522Z,98109.69
2023-01-07T19:54:02.312Z,98106.06
2023-01-07T19:56:30.827Z,98096.94
2023-01-07T19:58:57.992Z,98097.59
2023-01-07T20:01:26.497Z,98104.91
2023-01-07T20:03:53.572Z,98101.88
2023-01-07T20:06:21.913Z,98105.91
2023-01-07T20:08:48.365Z,98103.41
2023-01-07T20:11:15.013Z,98097.19
2023-01-07T20:13:41.614Z,98101.25
2023-01-07T20:16:09.147Z,98095.75
2023-01-07T20:18:39.631Z,98097.88
2023-01-07T20:21:06.249Z,98095.34
2023-01-07T20:23:34.487Z,98092.38
2023-01-07T20:26:01.952Z,98086.50
2023-01-07T20:28:28.662Z,98092.97
2023-01-07T20:30:54.933Z,98080.22
2023-01-07T20:33:21.199Z,98075.88
2023-01-07T20:35:47.773Z,98067.56
2023-01-07T20:38:14.124Z,98071.44
2023-01-07T20:40:40.895Z,98078.84
2023-01-07T20:43:07.797Z,98075.31
2023-01-07T20:45:37.367Z,98080.34
2023-01-07T20:48:04.404Z,98065.88
2023-01-07T20:50:31.989Z,98068.34
2023-01-07T20:52:58.315Z,98069.97
2023-01-07T20:55:24.714Z,98062.63
2023-01-07T20:57:51.098Z,98058.19
2023-01-07T21:00:17.421Z,98068.09
2023-01-07T21:02:43.791Z,98072.56
2023-01-07T21:05:10.412Z,98067.34
2023-01-07T21:07:36.691Z,98061.09
2023-01-07T21:10:03.250Z,98058.00
2023-01-07T21:12:29.608Z,98052.16
2023-01-07T21:14:55.880Z,98050.25
2023-01-07T21:17:22.158Z,98053.63
2023-01-07T21:19:48.462Z,98043.38
2023-01-07T21:22:15.732Z,98044.88
2023-01-07T21:24:42.158Z,98034.06
2023-01-07T21:27:08.448Z,98046.56
2023-01-07T21:29:34.712Z,98033.06
2023-01-07T21:32:02.849Z,98023.41
2023-01-07T21:34:29.225Z,98019.22
2023-01-07T21:36:55.518Z,98017.31
2023-01-07T21:39:21.950Z,98025.97
2023-01-07T21:41:48.207Z,98009.19
2023-01-07T21:44:14.703Z,98018.38
2023-01-07T21:46:41.087Z,98017.34
2023-01-07T21:49:08.200Z,98015.56
2023-01-07T21:51:34.511Z,98017.81
2023-01-07T21:54:00.767Z,98013.50
2023-01-07T21:56:28.616Z,98007.72
2023-01-07T21:58:54.876Z,98008.91
2023-01-07T22:01:21.544Z,98012.75
2023-01-07T22:03:48.825Z,98018.28
2023-01-07T22:06:20.053Z,98020.47
2023-01-07T22:08:46.717Z,98007.03
2023-01-07T22:11:13.843Z,98002.72
2023-01-07T22:13:40.278Z,97996.00
2023-01-07T22:16:06.816Z,97999.00
2023-01-07T22:18:33.151Z,98003.47
2023-01-07T22:20:59.459Z,97988.31
2023-01-07T22:23:25.720Z,97989.09
2023-01-07T22:25:52.067Z,97983.03
2023-01-07T22:28:19.295Z,97988.66
2023-01-07T22:30:48.864Z,97991.47
2023-01-07T22:33:15.300Z,98000.09
2023-01-07T22:35:41.735Z,98000.09
2023-01-07T22:38:08.271Z,97996.00
2023-01-07T22:40:36.457Z,97988.50
2023-01-07T22:43:07.898Z,97994.94
2023-01-07T22:45:42.404Z,97988.81
2023-01-07T22:48:10.744Z,97978.34
2023-01-07T22:50:37.139Z,97969.13
2023-01-07T22:55:33.747Z,97973.59
2023-01-07T22:58:00.590Z,97962.88
2023-01-07T23:00:39.986Z,97964.25
2023-01-07T23:03:06.704Z,97954.44
2023-01-07T23:05:34.853Z,97944.16
2023-01-07T23:08:01.101Z,97942.28
2023-01-07T23:10:27.363Z,97943.09
2023-01-07T23:12:53.679Z,97941.78
2023-01-07T23:15:19.964Z,97939.09
2023-01-07T23:17:46.208Z,97943.25
2023-01-07T23:20:12.514Z,97945.47
2023-01-07T23:22:38.782Z,97949.63
2023-01-07T23:25:05.358Z,97940.28
2023-01-07T23:27:31.603Z,97935.13
2023-01-07T23:29:58.652Z,97932.19
2023-01-07T23:32:25.180Z,97937.09
2023-01-07T23:34:51.658Z,97930.84
2023-01-07T23:37:17.916Z,97935.31
2023-01-07T23:39:44.220Z,97940.25
2023-01-07T23:42:10.485Z,97937.09
2023-01-07T23:44:36.789Z,97932.81
2023-01-07T23:47:03.355Z,97930.31
2023-01-07T23:49:29.812Z,97932.88
2023-01-07T23:51:56.084Z,97935.84
2023-01-07T23:54:23.863Z,97929.63
2023-01-07T23:56:50.613Z,97927.84
2023-01-07T23:59:17.274Z,97927.13
